Bridge of Allan, United Kingdom
Current Conditions -  °F | °C
As of 7:50 PM on Saturday 25 Oct 2014 (Local Time) from EGPH Reporting Station
Clear Clear  
Wind Chill: 52°   Ceiling: Unl
Heat Index: 52°   Visibility: 6mi
Dew Point: 43°   Wind: 23mph
Humidity: 71%   Direction: 230°SW
Pressure: 29.68"   Gusts: NA
Location:  56.15°N, 3.95°W
Report Text: EGPH 251850Z 23020KT CAVOK 11/06 Q1005
Loading
Personal Weather Stations






























Interactive Weather Map
Tropical Storm Tracking
New forecast layout! Learn more

10-Day Weather Forecast

Advertisements
Track Severe Weather on mobile